KNPA

Airport

Pensacola, Florida, USA
METAR KNPA 220456Z AUTO 00000KT 10SM CLR 26/22 A2990 RMK AO2 SLP127 T02560222
Observed Flight Rules
Jun-22 @ 04:56 UTC (45 minutes ago) Visual Flight Rules
Visibility Clouds
10 miles
  • Clear skies
Temperatures Readings
Current 26°C / 79°F
Dewpoint 22°C / 72°F
Humidity 79%
Altimeter 29.9" Hg
Pressure 1012.7 hPa
Elevation 9
METAR KNPA 220456Z AUTO 00000KT 10SM CLR 26/22 A2990 RMK AO2 SLP127 T02560222
Observed Flight Rules
Jun-22 @ 04:56 UTC
(45 minutes ago)
VFR
Clouds
  • Clear skies
Temperature Dewpoint
26°C / 79°F 22°C / 72°F
Humidity Altimeter Pressure
79% 29.9" Hg 1012.7 hPa